sensor_id;sensor_type;location;lat;lon;timestamp;temperature;humidity
13458;DHT22;6801;53.018;11.560;2024-03-02T00:01:05;8.60;80.30
13458;DHT22;6801;53.018;11.560;2024-03-02T00:03:33;8.60;80.30
13458;DHT22;6801;53.018;11.560;2024-03-02T00:06:00;8.60;80.30
13458;DHT22;6801;53.018;11.560;2024-03-02T00:08:27;8.50;80.30
13458;DHT22;6801;53.018;11.560;2024-03-02T00:10:57;8.50;80.40
13458;DHT22;6801;53.018;11.560;2024-03-02T00:13:25;8.50;80.50
13458;DHT22;6801;53.018;11.560;2024-03-02T00:15:55;8.50;80.50
13458;DHT22;6801;53.018;11.560;2024-03-02T00:18:26;8.50;80.50
13458;DHT22;6801;53.018;11.560;2024-03-02T00:20:54;8.50;80.50
13458;DHT22;6801;53.018;11.560;2024-03-02T00:23:23;8.50;80.40
13458;DHT22;6801;53.018;11.560;2024-03-02T00:25:51;8.40;80.40
13458;DHT22;6801;53.018;11.560;2024-03-02T00:28:21;8.40;80.50
13458;DHT22;6801;53.018;11.560;2024-03-02T00:30:58;8.40;80.50
13458;DHT22;6801;53.018;11.560;2024-03-02T00:33:27;8.40;80.50
13458;DHT22;6801;53.018;11.560;2024-03-02T00:35:54;8.40;80.60
13458;DHT22;6801;53.018;11.560;2024-03-02T00:38:22;8.30;80.50
13458;DHT22;6801;53.018;11.560;2024-03-02T00:40:49;8.30;80.70
13458;DHT22;6801;53.018;11.560;2024-03-02T00:46:15;8.30;80.70
13458;DHT22;6801;53.018;11.560;2024-03-02T00:48:48;8.30;80.80
13458;DHT22;6801;53.018;11.560;2024-03-02T00:51:18;8.30;80.80
13458;DHT22;6801;53.018;11.560;2024-03-02T00:53:45;8.30;80.80
13458;DHT22;6801;53.018;11.560;2024-03-02T00:56:12;8.30;80.90
13458;DHT22;6801;53.018;11.560;2024-03-02T00:58:39;8.30;80.90
13458;DHT22;6801;53.018;11.560;2024-03-02T01:01:06;8.30;80.80
13458;DHT22;6801;53.018;11.560;2024-03-02T01:03:35;8.30;80.70
13458;DHT22;6801;53.018;11.560;2024-03-02T01:06:03;8.30;80.70
13458;DHT22;6801;53.018;11.560;2024-03-02T01:08:31;8.20;80.70
13458;DHT22;6801;53.018;11.560;2024-03-02T01:10:58;8.30;80.60
13458;DHT22;6801;53.018;11.560;2024-03-02T01:13:25;8.30;80.50
13458;DHT22;6801;53.018;11.560;2024-03-02T01:15:52;8.20;80.60
13458;DHT22;6801;53.018;11.560;2024-03-02T01:18:19;8.20;80.60
13458;DHT22;6801;53.018;11.560;2024-03-02T01:20:49;8.20;80.70
13458;DHT22;6801;53.018;11.560;2024-03-02T01:23:17;8.20;80.80
13458;DHT22;6801;53.018;11.560;2024-03-02T01:25:45;8.20;80.60
13458;DHT22;6801;53.018;11.560;2024-03-02T01:28:12;8.20;80.60
13458;DHT22;6801;53.018;11.560;2024-03-02T01:30:40;8.20;80.60
13458;DHT22;6801;53.018;11.560;2024-03-02T01:33:07;8.20;80.30
13458;DHT22;6801;53.018;11.560;2024-03-02T01:35:34;8.10;80.30
13458;DHT22;6801;53.018;11.560;2024-03-02T01:38:03;8.10;80.40
13458;DHT22;6801;53.018;11.560;2024-03-02T01:40:32;8.10;80.50
13458;DHT22;6801;53.018;11.560;2024-03-02T01:42:59;8.10;80.60
13458;DHT22;6801;53.018;11.560;2024-03-02T01:45:28;8.10;80.60
13458;DHT22;6801;53.018;11.560;2024-03-02T01:47:55;8.00;80.70
13458;DHT22;6801;53.018;11.560;2024-03-02T01:50:26;8.00;80.70
13458;DHT22;6801;53.018;11.560;2024-03-02T01:52:54;8.00;80.70
13458;DHT22;6801;53.018;11.560;2024-03-02T01:55:23;8.00;80.70
13458;DHT22;6801;53.018;11.560;2024-03-02T01:57:52;8.00;80.80
13458;DHT22;6801;53.018;11.560;2024-03-02T02:00:20;8.00;80.70
13458;DHT22;6801;53.018;11.560;2024-03-02T02:02:48;8.00;80.80
13458;DHT22;6801;53.018;11.560;2024-03-02T02:05:15;8.00;80.90
13458;DHT22;6801;53.018;11.560;2024-03-02T02:07:42;8.00;80.90
13458;DHT22;6801;53.018;11.560;2024-03-02T02:10:10;7.90;80.90
13458;DHT22;6801;53.018;11.560;2024-03-02T02:12:39;7.90;80.70
13458;DHT22;6801;53.018;11.560;2024-03-02T02:15:22;7.90;80.70
13458;DHT22;6801;53.018;11.560;2024-03-02T02:17:49;7.90;80.70
13458;DHT22;6801;53.018;11.560;2024-03-02T02:20:16;7.90;80.70
13458;DHT22;6801;53.018;11.560;2024-03-02T02:22:58;7.90;80.70
13458;DHT22;6801;53.018;11.560;2024-03-02T02:25:26;7.90;80.70
13458;DHT22;6801;53.018;11.560;2024-03-02T02:27:53;7.90;80.70
13458;DHT22;6801;53.018;11.560;2024-03-02T02:30:21;7.90;80.70
13458;DHT22;6801;53.018;11.560;2024-03-02T02:32:48;7.80;80.70
13458;DHT22;6801;53.018;11.560;2024-03-02T02:35:16;7.80;80.80
13458;DHT22;6801;53.018;11.560;2024-03-02T02:37:43;7.80;80.80
13458;DHT22;6801;53.018;11.560;2024-03-02T02:40:13;7.80;80.80
13458;DHT22;6801;53.018;11.560;2024-03-02T02:42:41;7.80;80.80
13458;DHT22;6801;53.018;11.560;2024-03-02T02:45:08;7.80;80.80
13458;DHT22;6801;53.018;11.560;2024-03-02T02:47:36;7.80;80.90
13458;DHT22;6801;53.018;11.560;2024-03-02T02:50:04;7.70;81.00
13458;DHT22;6801;53.018;11.560;2024-03-02T02:52:34;7.70;81.00
13458;DHT22;6801;53.018;11.560;2024-03-02T02:55:03;7.70;81.10
13458;DHT22;6801;53.018;11.560;2024-03-02T02:57:32;7.70;81.20
13458;DHT22;6801;53.018;11.560;2024-03-02T03:00:02;7.70;81.30
13458;DHT22;6801;53.018;11.560;2024-03-02T03:02:36;7.70;81.30
13458;DHT22;6801;53.018;11.560;2024-03-02T03:05:05;7.60;81.30
13458;DHT22;6801;53.018;11.560;2024-03-02T03:07:32;7.60;81.30
13458;DHT22;6801;53.018;11.560;2024-03-02T03:10:00;7.60;81.40
13458;DHT22;6801;53.018;11.560;2024-03-02T03:12:28;7.60;81.40
13458;DHT22;6801;53.018;11.560;2024-03-02T03:14:57;7.60;81.40
13458;DHT22;6801;53.018;11.560;2024-03-02T03:17:24;7.60;81.40
13458;DHT22;6801;53.018;11.560;2024-03-02T03:19:51;7.60;81.30
13458;DHT22;6801;53.018;11.560;2024-03-02T03:22:18;7.60;81.20
13458;DHT22;6801;53.018;11.560;2024-03-02T03:24:46;7.60;81.20
13458;DHT22;6801;53.018;11.560;2024-03-02T03:27:13;7.60;81.20
13458;DHT22;6801;53.018;11.560;2024-03-02T03:29:40;7.60;81.20
13458;DHT22;6801;53.018;11.560;2024-03-02T03:32:08;7.60;81.20
13458;DHT22;6801;53.018;11.560;2024-03-02T03:34:36;7.60;81.10
13458;DHT22;6801;53.018;11.560;2024-03-02T03:37:03;7.60;81.10
13458;DHT22;6801;53.018;11.560;2024-03-02T03:39:31;7.60;81.10
13458;DHT22;6801;53.018;11.560;2024-03-02T03:41:58;7.60;81.00
13458;DHT22;6801;53.018;11.560;2024-03-02T03:44:25;7.50;80.90
13458;DHT22;6801;53.018;11.560;2024-03-02T03:46:52;7.60;80.90
13458;DHT22;6801;53.018;11.560;2024-03-02T03:49:21;7.60;80.80
13458;DHT22;6801;53.018;11.560;2024-03-02T03:51:48;7.50;80.80
13458;DHT22;6801;53.018;11.560;2024-03-02T03:54:15;7.60;80.80
13458;DHT22;6801;53.018;11.560;2024-03-02T03:56:42;7.60;80.70
13458;DHT22;6801;53.018;11.560;2024-03-02T03:59:09;7.60;80.80
13458;DHT22;6801;53.018;11.560;2024-03-02T04:01:37;7.50;80.80
13458;DHT22;6801;53.018;11.560;2024-03-02T04:04:04;7.50;80.80
13458;DHT22;6801;53.018;11.560;2024-03-02T04:06:32;7.50;80.90
13458;DHT22;6801;53.018;11.560;2024-03-02T04:08:59;7.60;80.90
13458;DHT22;6801;53.018;11.560;2024-03-02T04:11:26;7.50;81.00
13458;DHT22;6801;53.018;11.560;2024-03-02T04:13:54;7.60;81.00
13458;DHT22;6801;53.018;11.560;2024-03-02T04:16:21;7.50;81.10
13458;DHT22;6801;53.018;11.560;2024-03-02T04:18:48;7.50;81.20
13458;DHT22;6801;53.018;11.560;2024-03-02T04:21:15;7.50;81.30
13458;DHT22;6801;53.018;11.560;2024-03-02T04:23:44;7.50;81.30
13458;DHT22;6801;53.018;11.560;2024-03-02T04:26:11;7.50;81.40
13458;DHT22;6801;53.018;11.560;2024-03-02T04:28:38;7.50;81.40
13458;DHT22;6801;53.018;11.560;2024-03-02T04:31:05;7.50;81.40
13458;DHT22;6801;53.018;11.560;2024-03-02T04:33:32;7.50;81.50
13458;DHT22;6801;53.018;11.560;2024-03-02T04:35:59;7.50;81.40
13458;DHT22;6801;53.018;11.560;2024-03-02T04:38:26;7.50;81.30
13458;DHT22;6801;53.018;11.560;2024-03-02T04:40:56;7.50;81.30
13458;DHT22;6801;53.018;11.560;2024-03-02T04:43:23;7.50;81.30
13458;DHT22;6801;53.018;11.560;2024-03-02T04:45:50;7.50;81.40
13458;DHT22;6801;53.018;11.560;2024-03-02T04:48:17;7.50;81.40
13458;DHT22;6801;53.018;11.560;2024-03-02T04:50:45;7.50;81.40
13458;DHT22;6801;53.018;11.560;2024-03-02T04:53:12;7.50;81.50
13458;DHT22;6801;53.018;11.560;2024-03-02T04:55:39;7.50;81.50
13458;DHT22;6801;53.018;11.560;2024-03-02T04:58:37;7.50;81.50
13458;DHT22;6801;53.018;11.560;2024-03-02T05:01:04;7.50;81.30
13458;DHT22;6801;53.018;11.560;2024-03-02T05:03:31;7.50;81.40
13458;DHT22;6801;53.018;11.560;2024-03-02T05:06:00;7.50;81.40
13458;DHT22;6801;53.018;11.560;2024-03-02T05:08:27;7.50;81.50
13458;DHT22;6801;53.018;11.560;2024-03-02T05:10:54;7.50;81.50
13458;DHT22;6801;53.018;11.560;2024-03-02T05:13:43;7.50;81.60
13458;DHT22;6801;53.018;11.560;2024-03-02T05:16:10;7.50;81.60
13458;DHT22;6801;53.018;11.560;2024-03-02T05:18:37;7.50;81.70
13458;DHT22;6801;53.018;11.560;2024-03-02T05:21:05;7.60;81.80
13458;DHT22;6801;53.018;11.560;2024-03-02T05:23:32;7.60;81.80
13458;DHT22;6801;53.018;11.560;2024-03-02T05:25:59;7.50;81.70
13458;DHT22;6801;53.018;11.560;2024-03-02T05:28:26;7.50;81.70
13458;DHT22;6801;53.018;11.560;2024-03-02T05:30:54;7.50;81.80
13458;DHT22;6801;53.018;11.560;2024-03-02T05:33:21;7.50;81.80
13458;DHT22;6801;53.018;11.560;2024-03-02T05:35:49;7.50;81.90
13458;DHT22;6801;53.018;11.560;2024-03-02T05:38:16;7.60;81.90
13458;DHT22;6801;53.018;11.560;2024-03-02T05:40:43;7.60;82.20
13458;DHT22;6801;53.018;11.560;2024-03-02T05:43:10;7.60;82.30
13458;DHT22;6801;53.018;11.560;2024-03-02T05:45:37;7.60;82.40
13458;DHT22;6801;53.018;11.560;2024-03-02T05:48:07;7.60;82.40
13458;DHT22;6801;53.018;11.560;2024-03-02T05:50:34;7.70;82.40
13458;DHT22;6801;53.018;11.560;2024-03-02T05:53:01;7.60;82.40
13458;DHT22;6801;53.018;11.560;2024-03-02T05:55:28;7.60;82.40
13458;DHT22;6801;53.018;11.560;2024-03-02T05:57:56;7.60;82.30
13458;DHT22;6801;53.018;11.560;2024-03-02T06:00:41;7.60;82.30
13458;DHT22;6801;53.018;11.560;2024-03-02T06:03:09;7.60;82.30
13458;DHT22;6801;53.018;11.560;2024-03-02T06:05:36;7.60;82.20
13458;DHT22;6801;53.018;11.560;2024-03-02T06:08:04;7.60;82.20
13458;DHT22;6801;53.018;11.560;2024-03-02T06:10:31;7.50;82.10
13458;DHT22;6801;53.018;11.560;2024-03-02T06:12:58;7.60;82.10
13458;DHT22;6801;53.018;11.560;2024-03-02T06:15:25;7.60;82.20
13458;DHT22;6801;53.018;11.560;2024-03-02T06:17:52;7.60;82.00
13458;DHT22;6801;53.018;11.560;2024-03-02T06:20:21;7.60;82.00
13458;DHT22;6801;53.018;11.560;2024-03-02T06:22:48;7.60;82.00
13458;DHT22;6801;53.018;11.560;2024-03-02T06:25:15;7.60;82.10
13458;DHT22;6801;53.018;11.560;2024-03-02T06:27:42;7.60;82.10
13458;DHT22;6801;53.018;11.560;2024-03-02T06:30:10;7.70;82.20
13458;DHT22;6801;53.018;11.560;2024-03-02T06:32:38;7.70;82.20
13458;DHT22;6801;53.018;11.560;2024-03-02T06:35:05;7.70;82.20
13458;DHT22;6801;53.018;11.560;2024-03-02T06:37:38;7.70;82.30
13458;DHT22;6801;53.018;11.560;2024-03-02T06:40:07;7.70;82.30
13458;DHT22;6801;53.018;11.560;2024-03-02T06:42:34;7.70;82.40
13458;DHT22;6801;53.018;11.560;2024-03-02T06:45:01;7.70;82.60
13458;DHT22;6801;53.018;11.560;2024-03-02T06:47:29;7.70;82.70
13458;DHT22;6801;53.018;11.560;2024-03-02T06:49:56;7.80;82.90
13458;DHT22;6801;53.018;11.560;2024-03-02T06:52:24;7.80;82.90
13458;DHT22;6801;53.018;11.560;2024-03-02T06:54:53;7.70;83.00
13458;DHT22;6801;53.018;11.560;2024-03-02T06:57:20;7.70;83.10
13458;DHT22;6801;53.018;11.560;2024-03-02T06:59:47;7.80;83.30
13458;DHT22;6801;53.018;11.560;2024-03-02T07:02:16;7.80;83.40
13458;DHT22;6801;53.018;11.560;2024-03-02T07:04:43;7.80;83.40
13458;DHT22;6801;53.018;11.560;2024-03-02T07:07:11;7.80;83.40
13458;DHT22;6801;53.018;11.560;2024-03-02T07:09:38;7.80;83.40
13458;DHT22;6801;53.018;11.560;2024-03-02T07:12:07;7.80;83.40
13458;DHT22;6801;53.018;11.560;2024-03-02T07:14:35;7.80;83.50
13458;DHT22;6801;53.018;11.560;2024-03-02T07:17:19;7.80;83.50
13458;DHT22;6801;53.018;11.560;2024-03-02T07:19:46;7.80;83.50
13458;DHT22;6801;53.018;11.560;2024-03-02T07:22:13;7.80;83.40
13458;DHT22;6801;53.018;11.560;2024-03-02T07:24:41;7.80;83.40
13458;DHT22;6801;53.018;11.560;2024-03-02T07:27:10;7.90;83.40
13458;DHT22;6801;53.018;11.560;2024-03-02T07:29:38;7.90;83.40
13458;DHT22;6801;53.018;11.560;2024-03-02T07:32:05;7.90;83.40
13458;DHT22;6801;53.018;11.560;2024-03-02T07:34:33;8.00;83.40
13458;DHT22;6801;53.018;11.560;2024-03-02T07:37:00;8.00;83.40
13458;DHT22;6801;53.018;11.560;2024-03-02T07:39:27;8.00;83.50
13458;DHT22;6801;53.018;11.560;2024-03-02T07:41:54;8.00;83.50
13458;DHT22;6801;53.018;11.560;2024-03-02T07:44:22;8.00;83.50
13458;DHT22;6801;53.018;11.560;2024-03-02T07:46:49;8.10;83.50
13458;DHT22;6801;53.018;11.560;2024-03-02T07:49:17;8.10;83.50
13458;DHT22;6801;53.018;11.560;2024-03-02T07:51:44;8.10;83.40
13458;DHT22;6801;53.018;11.560;2024-03-02T07:54:11;8.20;83.30
13458;DHT22;6801;53.018;11.560;2024-03-02T07:56:38;8.20;83.20
13458;DHT22;6801;53.018;11.560;2024-03-02T07:59:05;8.20;83.00
13458;DHT22;6801;53.018;11.560;2024-03-02T08:01:34;8.30;83.00
13458;DHT22;6801;53.018;11.560;2024-03-02T08:04:02;8.30;83.00
13458;DHT22;6801;53.018;11.560;2024-03-02T08:06:30;8.30;83.00
13458;DHT22;6801;53.018;11.560;2024-03-02T08:08:57;8.40;82.90
13458;DHT22;6801;53.018;11.560;2024-03-02T08:11:25;8.40;82.90
13458;DHT22;6801;53.018;11.560;2024-03-02T08:13:53;8.40;82.80
13458;DHT22;6801;53.018;11.560;2024-03-02T08:16:21;8.50;82.80
13458;DHT22;6801;53.018;11.560;2024-03-02T08:18:51;8.50;82.70
13458;DHT22;6801;53.018;11.560;2024-03-02T08:21:18;8.50;82.50
13458;DHT22;6801;53.018;11.560;2024-03-02T08:23:45;8.50;82.50
13458;DHT22;6801;53.018;11.560;2024-03-02T08:26:13;8.60;82.30
13458;DHT22;6801;53.018;11.560;2024-03-02T08:28:40;8.60;82.20
13458;DHT22;6801;53.018;11.560;2024-03-02T08:31:07;8.70;82.00
13458;DHT22;6801;53.018;11.560;2024-03-02T08:33:35;8.80;82.00
13458;DHT22;6801;53.018;11.560;2024-03-02T08:36:04;8.80;82.00
13458;DHT22;6801;53.018;11.560;2024-03-02T08:38:31;8.80;81.80
13458;DHT22;6801;53.018;11.560;2024-03-02T08:40:58;8.90;82.10
13458;DHT22;6801;53.018;11.560;2024-03-02T08:43:26;9.00;82.30
13458;DHT22;6801;53.018;11.560;2024-03-02T08:45:53;9.00;82.20
13458;DHT22;6801;53.018;11.560;2024-03-02T08:48:20;9.00;82.30
13458;DHT22;6801;53.018;11.560;2024-03-02T08:50:47;9.00;82.30
13458;DHT22;6801;53.018;11.560;2024-03-02T08:53:15;9.00;82.40
13458;DHT22;6801;53.018;11.560;2024-03-02T08:55:44;9.00;82.30
13458;DHT22;6801;53.018;11.560;2024-03-02T08:58:11;9.10;82.30
13458;DHT22;6801;53.018;11.560;2024-03-02T09:00:39;9.10;82.30
13458;DHT22;6801;53.018;11.560;2024-03-02T09:03:06;9.10;82.30
13458;DHT22;6801;53.018;11.560;2024-03-02T09:05:33;9.10;82.30
13458;DHT22;6801;53.018;11.560;2024-03-02T09:08:00;9.10;82.30
13458;DHT22;6801;53.018;11.560;2024-03-02T09:10:30;9.20;82.40
13458;DHT22;6801;53.018;11.560;2024-03-02T09:12:58;9.20;82.40
13458;DHT22;6801;53.018;11.560;2024-03-02T09:15:25;9.20;82.30
13458;DHT22;6801;53.018;11.560;2024-03-02T09:17:52;9.20;82.40
13458;DHT22;6801;53.018;11.560;2024-03-02T09:20:19;9.30;82.50
13458;DHT22;6801;53.018;11.560;2024-03-02T09:22:46;9.30;82.40
13458;DHT22;6801;53.018;11.560;2024-03-02T09:25:14;9.40;82.50
13458;DHT22;6801;53.018;11.560;2024-03-02T09:27:43;9.40;82.40
13458;DHT22;6801;53.018;11.560;2024-03-02T09:30:11;9.40;82.40
13458;DHT22;6801;53.018;11.560;2024-03-02T09:32:39;9.40;82.50
13458;DHT22;6801;53.018;11.560;2024-03-02T09:35:07;9.40;82.50
13458;DHT22;6801;53.018;11.560;2024-03-02T09:37:35;9.50;82.50
13458;DHT22;6801;53.018;11.560;2024-03-02T09:40:02;9.50;82.50
13458;DHT22;6801;53.018;11.560;2024-03-02T09:42:30;9.50;82.50
13458;DHT22;6801;53.018;11.560;2024-03-02T09:44:59;9.50;82.50
13458;DHT22;6801;53.018;11.560;2024-03-02T09:47:26;9.50;82.50
13458;DHT22;6801;53.018;11.560;2024-03-02T09:49:54;9.50;82.50
13458;DHT22;6801;53.018;11.560;2024-03-02T09:52:22;9.50;82.50
13458;DHT22;6801;53.018;11.560;2024-03-02T09:54:49;9.50;82.40
13458;DHT22;6801;53.018;11.560;2024-03-02T09:57:16;9.50;82.30
13458;DHT22;6801;53.018;11.560;2024-03-02T09:59:43;9.60;82.30
13458;DHT22;6801;53.018;11.560;2024-03-02T10:02:12;9.60;82.20
13458;DHT22;6801;53.018;11.560;2024-03-02T10:04:39;9.60;82.20
13458;DHT22;6801;53.018;11.560;2024-03-02T10:07:10;9.70;82.00
13458;DHT22;6801;53.018;11.560;2024-03-02T10:09:37;9.80;82.10
13458;DHT22;6801;53.018;11.560;2024-03-02T10:12:05;9.80;82.20
13458;DHT22;6801;53.018;11.560;2024-03-02T10:14:32;9.80;82.20
13458;DHT22;6801;53.018;11.560;2024-03-02T10:17:02;9.90;82.10
13458;DHT22;6801;53.018;11.560;2024-03-02T10:19:32;9.90;82.20
13458;DHT22;6801;53.018;11.560;2024-03-02T10:22:01;10.00;82.20
13458;DHT22;6801;53.018;11.560;2024-03-02T10:24:35;10.00;82.20
13458;DHT22;6801;53.018;11.560;2024-03-02T10:27:07;10.00;82.20
13458;DHT22;6801;53.018;11.560;2024-03-02T10:29:37;10.10;82.10
13458;DHT22;6801;53.018;11.560;2024-03-02T10:32:06;10.20;82.10
13458;DHT22;6801;53.018;11.560;2024-03-02T10:34:37;10.20;82.10
13458;DHT22;6801;53.018;11.560;2024-03-02T10:37:05;10.30;82.10
13458;DHT22;6801;53.018;11.560;2024-03-02T10:39:34;10.30;82.20
13458;DHT22;6801;53.018;11.560;2024-03-02T10:42:02;10.40;82.20
13458;DHT22;6801;53.018;11.560;2024-03-02T10:44:30;10.40;82.20
13458;DHT22;6801;53.018;11.560;2024-03-02T10:47:00;10.50;82.20
13458;DHT22;6801;53.018;11.560;2024-03-02T10:49:29;10.50;82.20
13458;DHT22;6801;53.018;11.560;2024-03-02T10:51:58;10.60;82.20
13458;DHT22;6801;53.018;11.560;2024-03-02T10:54:25;10.70;82.40
13458;DHT22;6801;53.018;11.560;2024-03-02T10:56:58;10.70;82.30
13458;DHT22;6801;53.018;11.560;2024-03-02T10:59:28;10.80;82.30
13458;DHT22;6801;53.018;11.560;2024-03-02T11:01:57;10.80;82.30
13458;DHT22;6801;53.018;11.560;2024-03-02T11:04:26;10.90;82.20
13458;DHT22;6801;53.018;11.560;2024-03-02T11:06:59;11.00;81.90
13458;DHT22;6801;53.018;11.560;2024-03-02T11:09:28;11.00;81.60
13458;DHT22;6801;53.018;11.560;2024-03-02T11:12:03;11.00;81.60
13458;DHT22;6801;53.018;11.560;2024-03-02T11:14:31;11.20;81.70
13458;DHT22;6801;53.018;11.560;2024-03-02T11:17:00;11.20;81.60
13458;DHT22;6801;53.018;11.560;2024-03-02T11:19:29;11.30;81.60
13458;DHT22;6801;53.018;11.560;2024-03-02T11:21:58;11.30;81.50
13458;DHT22;6801;53.018;11.560;2024-03-02T11:24:33;11.30;81.50
13458;DHT22;6801;53.018;11.560;2024-03-02T11:27:01;11.40;81.50
13458;DHT22;6801;53.018;11.560;2024-03-02T11:29:44;11.50;81.30
13458;DHT22;6801;53.018;11.560;2024-03-02T11:32:16;11.50;81.00
13458;DHT22;6801;53.018;11.560;2024-03-02T11:34:46;11.70;80.90
13458;DHT22;6801;53.018;11.560;2024-03-02T11:37:15;11.70;81.10
13458;DHT22;6801;53.018;11.560;2024-03-02T11:39:44;11.80;81.00
13458;DHT22;6801;53.018;11.560;2024-03-02T11:42:12;11.90;80.70
13458;DHT22;6801;53.018;11.560;2024-03-02T11:44:43;12.00;80.50
13458;DHT22;6801;53.018;11.560;2024-03-02T11:47:12;12.00;80.10
13458;DHT22;6801;53.018;11.560;2024-03-02T11:49:43;12.10;79.70
13458;DHT22;6801;53.018;11.560;2024-03-02T11:52:11;12.20;79.50
13458;DHT22;6801;53.018;11.560;2024-03-02T11:54:43;12.30;79.30
13458;DHT22;6801;53.018;11.560;2024-03-02T11:57:14;12.30;79.10
13458;DHT22;6801;53.018;11.560;2024-03-02T11:59:42;12.40;79.20
13458;DHT22;6801;53.018;11.560;2024-03-02T12:02:15;12.40;79.20
13458;DHT22;6801;53.018;11.560;2024-03-02T12:04:44;12.50;78.60
13458;DHT22;6801;53.018;11.560;2024-03-02T12:07:12;12.60;78.60
13458;DHT22;6801;53.018;11.560;2024-03-02T12:09:39;12.70;78.60
13458;DHT22;6801;53.018;11.560;2024-03-02T12:12:09;12.70;77.90
13458;DHT22;6801;53.018;11.560;2024-03-02T12:14:38;12.80;77.70
13458;DHT22;6801;53.018;11.560;2024-03-02T12:17:05;12.90;77.40
13458;DHT22;6801;53.018;11.560;2024-03-02T12:19:33;12.90;77.20
13458;DHT22;6801;53.018;11.560;2024-03-02T12:22:00;12.90;77.10
13458;DHT22;6801;53.018;11.560;2024-03-02T12:24:29;13.00;77.20
13458;DHT22;6801;53.018;11.560;2024-03-02T12:26:57;13.00;77.30
13458;DHT22;6801;53.018;11.560;2024-03-02T12:29:26;13.00;77.40
13458;DHT22;6801;53.018;11.560;2024-03-02T12:31:53;13.10;77.40
13458;DHT22;6801;53.018;11.560;2024-03-02T12:34:21;13.20;77.50
13458;DHT22;6801;53.018;11.560;2024-03-02T12:36:49;13.20;77.50
13458;DHT22;6801;53.018;11.560;2024-03-02T12:39:19;13.30;77.00
13458;DHT22;6801;53.018;11.560;2024-03-02T12:41:46;13.40;76.40
13458;DHT22;6801;53.018;11.560;2024-03-02T12:44:13;13.40;75.60
13458;DHT22;6801;53.018;11.560;2024-03-02T12:46:41;13.50;75.80
13458;DHT22;6801;53.018;11.560;2024-03-02T12:49:10;13.50;75.60
13458;DHT22;6801;53.018;11.560;2024-03-02T12:51:38;13.60;75.50
13458;DHT22;6801;53.018;11.560;2024-03-02T12:54:06;13.70;75.10
13458;DHT22;6801;53.018;11.560;2024-03-02T12:56:33;13.70;74.70
13458;DHT22;6801;53.018;11.560;2024-03-02T12:59:01;13.70;75.00
13458;DHT22;6801;53.018;11.560;2024-03-02T13:01:29;13.70;75.10
13458;DHT22;6801;53.018;11.560;2024-03-02T13:03:58;13.80;75.00
13458;DHT22;6801;53.018;11.560;2024-03-02T13:06:26;13.80;74.80
13458;DHT22;6801;53.018;11.560;2024-03-02T13:08:54;13.90;74.40
13458;DHT22;6801;53.018;11.560;2024-03-02T13:11:22;14.00;74.40
13458;DHT22;6801;53.018;11.560;2024-03-02T13:13:50;14.00;74.30
13458;DHT22;6801;53.018;11.560;2024-03-02T13:16:18;14.00;74.40
13458;DHT22;6801;53.018;11.560;2024-03-02T13:18:46;14.00;74.30
13458;DHT22;6801;53.018;11.560;2024-03-02T13:21:14;14.00;74.20
13458;DHT22;6801;53.018;11.560;2024-03-02T13:23:41;14.10;74.10
13458;DHT22;6801;53.018;11.560;2024-03-02T13:26:09;14.20;73.90
13458;DHT22;6801;53.018;11.560;2024-03-02T13:28:38;14.20;73.70
13458;DHT22;6801;53.018;11.560;2024-03-02T13:31:06;14.30;73.30
13458;DHT22;6801;53.018;11.560;2024-03-02T13:33:33;14.30;73.30
13458;DHT22;6801;53.018;11.560;2024-03-02T13:36:00;14.40;73.20
13458;DHT22;6801;53.018;11.560;2024-03-02T13:38:30;14.40;72.10
13458;DHT22;6801;53.018;11.560;2024-03-02T13:40:56;14.50;71.90
13458;DHT22;6801;53.018;11.560;2024-03-02T13:43:25;14.50;71.60
13458;DHT22;6801;53.018;11.560;2024-03-02T13:45:53;14.50;71.80
13458;DHT22;6801;53.018;11.560;2024-03-02T13:48:20;14.60;71.90
13458;DHT22;6801;53.018;11.560;2024-03-02T13:50:47;14.60;71.30
13458;DHT22;6801;53.018;11.560;2024-03-02T13:53:14;14.60;71.20
13458;DHT22;6801;53.018;11.560;2024-03-02T13:55:43;14.70;71.70
13458;DHT22;6801;53.018;11.560;2024-03-02T13:58:10;14.80;71.80
13458;DHT22;6801;53.018;11.560;2024-03-02T14:00:38;14.80;72.10
13458;DHT22;6801;53.018;11.560;2024-03-02T14:03:06;14.90;72.10
13458;DHT22;6801;53.018;11.560;2024-03-02T14:05:33;14.90;72.30
13458;DHT22;6801;53.018;11.560;2024-03-02T14:08:00;14.90;71.70
13458;DHT22;6801;53.018;11.560;2024-03-02T14:10:27;14.90;71.60
13458;DHT22;6801;53.018;11.560;2024-03-02T14:12:56;14.90;71.40
13458;DHT22;6801;53.018;11.560;2024-03-02T14:15:23;15.00;71.30
13458;DHT22;6801;53.018;11.560;2024-03-02T14:17:50;15.00;71.00
13458;DHT22;6801;53.018;11.560;2024-03-02T14:20:17;15.00;70.00
13458;DHT22;6801;53.018;11.560;2024-03-02T14:22:48;15.00;70.50
13458;DHT22;6801;53.018;11.560;2024-03-02T14:25:16;15.00;69.00
13458;DHT22;6801;53.018;11.560;2024-03-02T14:27:43;15.00;69.50
13458;DHT22;6801;53.018;11.560;2024-03-02T14:30:13;15.00;69.80
13458;DHT22;6801;53.018;11.560;2024-03-02T14:32:40;15.00;69.10
13458;DHT22;6801;53.018;11.560;2024-03-02T14:35:08;15.00;68.90
13458;DHT22;6801;53.018;11.560;2024-03-02T14:37:37;15.00;69.00
13458;DHT22;6801;53.018;11.560;2024-03-02T14:40:05;15.00;69.40
13458;DHT22;6801;53.018;11.560;2024-03-02T14:42:35;15.00;69.50
13458;DHT22;6801;53.018;11.560;2024-03-02T14:45:02;15.00;69.30
13458;DHT22;6801;53.018;11.560;2024-03-02T14:47:33;14.90;68.90
13458;DHT22;6801;53.018;11.560;2024-03-02T14:50:00;14.80;68.50
13458;DHT22;6801;53.018;11.560;2024-03-02T14:52:30;14.80;69.30
13458;DHT22;6801;53.018;11.560;2024-03-02T14:54:57;14.70;69.40
13458;DHT22;6801;53.018;11.560;2024-03-02T14:57:24;14.60;69.00
13458;DHT22;6801;53.018;11.560;2024-03-02T14:59:51;14.60;69.00
13458;DHT22;6801;53.018;11.560;2024-03-02T15:02:20;14.50;69.10
13458;DHT22;6801;53.018;11.560;2024-03-02T15:04:48;14.50;69.10
13458;DHT22;6801;53.018;11.560;2024-03-02T15:07:15;14.50;69.40
13458;DHT22;6801;53.018;11.560;2024-03-02T15:09:43;14.50;69.60
13458;DHT22;6801;53.018;11.560;2024-03-02T15:12:10;14.30;69.70
13458;DHT22;6801;53.018;11.560;2024-03-02T15:14:38;14.30;69.70
13458;DHT22;6801;53.018;11.560;2024-03-02T15:17:12;14.30;69.90
13458;DHT22;6801;53.018;11.560;2024-03-02T15:19:41;14.30;70.00
13458;DHT22;6801;53.018;11.560;2024-03-02T15:22:10;14.30;70.10
13458;DHT22;6801;53.018;11.560;2024-03-02T15:24:37;14.10;70.20
13458;DHT22;6801;53.018;11.560;2024-03-02T15:27:04;14.20;70.40
13458;DHT22;6801;53.018;11.560;2024-03-02T15:29:34;14.10;70.20
13458;DHT22;6801;53.018;11.560;2024-03-02T15:32:01;14.10;70.30
13458;DHT22;6801;53.018;11.560;2024-03-02T15:34:30;14.00;70.40
13458;DHT22;6801;53.018;11.560;2024-03-02T15:36:58;14.00;70.40
13458;DHT22;6801;53.018;11.560;2024-03-02T15:39:27;14.00;70.60
13458;DHT22;6801;53.018;11.560;2024-03-02T15:41:54;13.90;70.80
13458;DHT22;6801;53.018;11.560;2024-03-02T15:44:21;13.90;70.70
13458;DHT22;6801;53.018;11.560;2024-03-02T15:46:48;13.80;70.80
13458;DHT22;6801;53.018;11.560;2024-03-02T15:49:15;13.80;71.00